createdAt,value
2018-11-04T00:01:27.561Z,67.96
2018-11-04T00:03:57.520Z,67.94
2018-11-04T00:06:27.591Z,68.36
2018-11-04T00:08:57.475Z,68.46
2018-11-04T00:11:27.546Z,68.56
2018-11-04T00:13:57.505Z,68.32
2018-11-04T00:16:27.503Z,68.20
2018-11-04T00:18:57.566Z,68.01
2018-11-04T00:21:27.446Z,68.10
2018-11-04T00:23:57.620Z,68.30
2018-11-04T00:26:27.634Z,68.58
2018-11-04T00:28:57.626Z,67.93
2018-11-04T00:31:27.496Z,68.06
2018-11-04T00:33:57.795Z,68.24
2018-11-04T00:36:27.602Z,67.95
2018-11-04T00:38:57.565Z,67.81
2018-11-04T00:41:27.622Z,68.38
2018-11-04T00:43:57.663Z,68.88
2018-11-04T00:46:27.590Z,68.20
2018-11-04T00:48:57.598Z,68.49
2018-11-04T00:51:27.529Z,68.28
2018-11-04T00:53:57.562Z,68.32
2018-11-04T00:56:27.559Z,67.99
2018-11-04T00:58:57.546Z,68.11
2018-11-04T01:01:27.604Z,67.34
2018-11-04T01:03:57.748Z,67.89
2018-11-04T01:06:27.639Z,67.43
2018-11-04T01:08:57.691Z,67.89
2018-11-04T01:11:27.738Z,67.27
2018-11-04T01:13:58.518Z,68.04
2018-11-04T01:16:27.679Z,68.25
2018-11-04T01:18:57.638Z,67.52
2018-11-04T01:21:27.631Z,67.14
2018-11-04T01:23:57.666Z,67.92
2018-11-04T01:26:27.718Z,68.38
2018-11-04T01:28:57.755Z,68.03
2018-11-04T01:31:27.635Z,68.13
2018-11-04T01:33:57.746Z,68.54
2018-11-04T01:36:27.654Z,67.58
2018-11-04T01:38:57.592Z,67.65
2018-11-04T01:41:27.696Z,68.12
2018-11-04T01:43:57.690Z,68.05
2018-11-04T01:46:27.663Z,67.44
2018-11-04T01:48:57.731Z,67.84
2018-11-04T01:51:27.834Z,68.00
2018-11-04T01:53:57.759Z,68.07
2018-11-04T01:56:27.686Z,67.78
2018-11-04T01:58:57.723Z,67.93
2018-11-04T02:01:27.718Z,67.90
2018-11-04T02:03:57.890Z,67.92
2018-11-04T02:06:27.911Z,68.34
2018-11-04T02:08:57.898Z,68.31
2018-11-04T02:11:27.816Z,68.22
2018-11-04T02:13:57.682Z,68.49
2018-11-04T02:16:27.791Z,68.21
2018-11-04T02:18:57.731Z,68.21
2018-11-04T02:21:27.759Z,68.62
2018-11-04T02:23:57.933Z,68.22
2018-11-04T02:26:27.794Z,68.72
2018-11-04T02:28:57.714Z,68.08
2018-11-04T02:31:27.881Z,69.09
2018-11-04T02:33:57.842Z,68.66
2018-11-04T02:36:27.804Z,69.26
2018-11-04T02:38:57.755Z,68.32
2018-11-04T02:41:27.770Z,68.81
2018-11-04T02:43:57.850Z,68.78
2018-11-04T02:46:27.810Z,68.49
2018-11-04T02:48:57.884Z,68.56
2018-11-04T02:51:27.998Z,68.65
2018-11-04T02:53:57.746Z,69.03
2018-11-04T02:56:27.927Z,68.26
2018-11-04T02:58:57.787Z,68.37
2018-11-04T03:01:27.811Z,68.92
2018-11-04T03:03:57.832Z,68.98
2018-11-04T03:06:27.847Z,68.87
2018-11-04T03:08:57.850Z,68.93
2018-11-04T03:11:27.886Z,69.01
2018-11-04T03:13:58.024Z,68.26
2018-11-04T03:16:27.814Z,68.98
2018-11-04T03:18:57.818Z,68.83
2018-11-04T03:21:27.859Z,68.89
2018-11-04T03:23:57.915Z,69.28
2018-11-04T03:26:28.147Z,69.42
2018-11-04T03:28:57.895Z,69.58
2018-11-04T03:31:27.972Z,69.22
2018-11-04T03:33:57.895Z,69.20
2018-11-04T03:36:27.860Z,68.67
2018-11-04T03:38:58.314Z,68.74
2018-11-04T03:41:27.960Z,68.58
2018-11-04T03:43:57.861Z,69.03
2018-11-04T03:46:27.951Z,69.22
2018-11-04T03:48:57.928Z,69.13
2018-11-04T03:51:27.851Z,69.19
2018-11-04T03:53:57.867Z,69.21
2018-11-04T03:56:28.150Z,68.95
2018-11-04T03:58:57.942Z,68.55
2018-11-04T04:01:28.134Z,68.02
2018-11-04T04:03:57.926Z,67.95
2018-11-04T04:06:28.048Z,67.97
2018-11-04T04:08:57.948Z,67.94
2018-11-04T04:11:27.900Z,68.21
2018-11-04T04:13:57.942Z,67.67
2018-11-04T04:16:27.954Z,67.27
2018-11-04T04:18:57.928Z,67.35
2018-11-04T04:21:27.951Z,66.93
2018-11-04T04:23:58.020Z,67.60
2018-11-04T04:26:27.975Z,67.62
2018-11-04T04:28:58.094Z,66.91
2018-11-04T04:31:27.958Z,67.50
2018-11-04T04:33:58.036Z,67.53
2018-11-04T04:36:28.063Z,66.81
2018-11-04T04:38:57.959Z,67.37
2018-11-04T04:41:28.300Z,67.63
2018-11-04T04:43:57.999Z,67.40
2018-11-04T04:46:27.973Z,66.90
2018-11-04T04:48:58.074Z,66.66
2018-11-04T04:51:27.994Z,66.51
2018-11-04T04:53:57.983Z,67.00
2018-11-04T04:56:28.095Z,66.58
2018-11-04T04:58:58.055Z,67.49
2018-11-04T05:01:28.024Z,67.60
2018-11-04T05:03:58.100Z,66.84
2018-11-04T05:06:28.214Z,67.37
2018-11-04T05:08:58.075Z,67.40
2018-11-04T05:11:28.027Z,67.13
2018-11-04T05:13:58.108Z,67.69
2018-11-04T05:16:28.140Z,66.80
2018-11-04T05:18:58.059Z,67.41
2018-11-04T05:21:28.066Z,67.44
2018-11-04T05:23:58.067Z,66.82
2018-11-04T05:26:28.104Z,66.99
2018-11-04T05:28:58.102Z,66.23
2018-11-04T05:31:28.171Z,66.75
2018-11-04T05:33:58.264Z,66.92
2018-11-04T05:36:28.183Z,66.74
2018-11-04T05:38:58.143Z,66.81
2018-11-04T05:41:28.144Z,66.22
2018-11-04T05:43:58.095Z,66.64
2018-11-04T05:46:28.122Z,66.46
2018-11-04T05:48:58.077Z,66.99
2018-11-04T05:51:28.146Z,66.92
2018-11-04T05:53:58.235Z,66.86
2018-11-04T05:56:28.215Z,66.29
2018-11-04T05:58:58.170Z,66.57
2018-11-04T06:01:28.119Z,66.39
2018-11-04T06:03:58.208Z,66.55
2018-11-04T06:06:28.087Z,66.32
2018-11-04T06:08:58.116Z,66.45
2018-11-04T06:11:28.203Z,66.54
2018-11-04T06:13:58.223Z,66.28
2018-11-04T06:16:28.197Z,67.08
2018-11-04T06:18:58.151Z,67.06
2018-11-04T06:21:28.151Z,66.23
2018-11-04T06:23:58.343Z,67.05
2018-11-04T06:26:28.264Z,66.30
2018-11-04T06:28:58.231Z,66.16
2018-11-04T06:31:28.248Z,66.61
2018-11-04T06:33:58.211Z,67.07
2018-11-04T06:36:28.226Z,66.96
2018-11-04T06:38:58.243Z,66.53
2018-11-04T06:41:28.835Z,66.12
2018-11-04T06:43:58.282Z,66.16
2018-11-04T06:46:28.180Z,67.08
2018-11-04T06:48:58.483Z,66.38
2018-11-04T06:51:29.991Z,67.16
2018-11-04T06:53:59.152Z,66.69
2018-11-04T06:56:28.302Z,66.15
2018-11-04T06:58:58.238Z,66.81
2018-11-04T07:01:28.235Z,67.09
2018-11-04T07:04:16.263Z,67.15
2018-11-04T07:06:45.499Z,67.41
2018-11-04T07:09:15.550Z,67.13
2018-11-04T07:11:45.443Z,67.27
2018-11-04T07:14:14.586Z,67.59
2018-11-04T07:16:44.362Z,67.44
2018-11-04T07:19:13.870Z,67.08
2018-11-04T07:21:43.014Z,67.10
2018-11-04T07:24:12.182Z,67.70
2018-11-04T07:26:41.489Z,67.19
2018-11-04T07:29:10.867Z,67.28
2018-11-04T07:31:40.013Z,67.09
2018-11-04T07:34:09.210Z,66.75
2018-11-04T07:36:38.450Z,67.43
2018-11-04T07:39:11.402Z,66.98
2018-11-04T07:41:43.385Z,66.98
2018-11-04T07:44:12.780Z,67.74
2018-11-04T07:46:41.891Z,67.58
2018-11-04T07:49:11.111Z,66.55
2018-11-04T07:51:40.264Z,66.79
2018-11-04T07:54:09.386Z,67.19
2018-11-04T07:56:38.533Z,66.78
2018-11-04T07:59:14.460Z,66.50
2018-11-04T08:01:43.854Z,67.35
2018-11-04T08:04:13.069Z,67.08
2018-11-04T08:06:46.576Z,67.56
2018-11-04T08:09:23.948Z,67.57
2018-11-04T08:11:53.854Z,67.88
2018-11-04T08:14:23.031Z,67.60
2018-11-04T08:16:52.158Z,67.32
2018-11-04T08:19:21.326Z,66.65
2018-11-04T08:21:50.471Z,67.05
2018-11-04T08:24:19.745Z,66.89
2018-11-04T08:26:48.894Z,67.64
2018-11-04T08:29:18.142Z,66.44
2018-11-04T08:31:47.441Z,66.75
2018-11-04T08:34:16.660Z,67.54
2018-11-04T08:36:45.796Z,66.96
2018-11-04T08:39:14.955Z,67.50
2018-11-04T08:41:51.204Z,67.45
2018-11-04T08:44:25.676Z,66.90
2018-11-04T08:46:54.926Z,66.96
2018-11-04T08:49:24.074Z,67.47
2018-11-04T08:51:53.235Z,66.50
2018-11-04T08:54:22.400Z,66.50
2018-11-04T08:56:51.576Z,67.33
2018-11-04T08:59:20.747Z,67.23
2018-11-04T09:01:49.902Z,67.40
2018-11-04T09:04:19.046Z,67.21
2018-11-04T09:06:48.205Z,67.00
2018-11-04T09:09:17.404Z,66.79
2018-11-04T09:11:46.576Z,66.40
2018-11-04T09:14:15.753Z,65.88
2018-11-04T09:16:52.125Z,66.78
2018-11-04T09:19:21.277Z,66.41
2018-11-04T09:21:51.041Z,66.76
2018-11-04T09:24:20.119Z,65.97
2018-11-04T09:26:49.272Z,66.51
2018-11-04T09:29:18.464Z,65.75
2018-11-04T09:31:47.559Z,66.23
2018-11-04T09:34:16.718Z,65.69
2018-11-04T09:36:47.576Z,66.30
2018-11-04T09:39:16.784Z,66.91
2018-11-04T09:41:45.922Z,65.77
2018-11-04T09:44:15.322Z,66.32
2018-11-04T09:46:44.459Z,65.92
2018-11-04T09:49:13.831Z,66.10
2018-11-04T09:51:42.987Z,66.08
2018-11-04T09:54:12.123Z,65.41
2018-11-04T09:56:41.344Z,66.37
2018-11-04T09:59:10.442Z,66.12
2018-11-04T10:01:39.582Z,65.48
2018-11-04T10:04:08.710Z,65.24
2018-11-04T10:06:37.846Z,65.14
2018-11-04T10:09:09.480Z,65.18
2018-11-04T10:11:38.666Z,65.40
2018-11-04T10:14:08.406Z,65.34
2018-11-04T10:16:38.037Z,65.44
2018-11-04T10:19:07.372Z,64.69
2018-11-04T10:21:36.444Z,65.08
2018-11-04T10:24:06.000Z,65.42
2018-11-04T10:26:35.243Z,64.78
2018-11-04T10:29:04.479Z,65.71
2018-11-04T10:31:33.673Z,64.93
2018-11-04T10:34:02.851Z,65.09
2018-11-04T10:36:32.024Z,65.23
2018-11-04T10:39:01.183Z,65.03
2018-11-04T10:41:30.345Z,64.03
2018-11-04T10:43:59.690Z,64.64
2018-11-04T10:46:28.864Z,63.20
2018-11-04T10:48:58.674Z,64.15
2018-11-04T10:51:28.695Z,64.14
2018-11-04T10:53:58.679Z,65.10
2018-11-04T10:56:28.732Z,64.32
2018-11-04T10:58:58.766Z,64.80
2018-11-04T11:01:28.879Z,64.73
2018-11-04T11:03:58.943Z,64.55
2018-11-04T11:06:28.763Z,65.23
2018-11-04T11:08:58.804Z,64.09
2018-11-04T11:11:28.844Z,63.99
2018-11-04T11:13:58.851Z,64.14
2018-11-04T11:16:28.779Z,64.73
2018-11-04T11:18:58.790Z,63.67
2018-11-04T11:21:28.762Z,63.65
2018-11-04T11:23:58.871Z,64.24
2018-11-04T11:26:28.830Z,64.07
2018-11-04T11:28:58.831Z,64.08
2018-11-04T11:31:28.770Z,64.14
2018-11-04T11:33:58.740Z,63.66
2018-11-04T11:36:28.821Z,63.08
2018-11-04T11:38:58.745Z,62.76
2018-11-04T11:41:28.859Z,63.03
2018-11-04T11:43:58.865Z,63.28
2018-11-04T11:48:55.635Z,62.47
2018-11-04T11:51:24.850Z,62.24
2018-11-04T11:53:54.073Z,63.05
2018-11-04T11:56:23.272Z,62.69
2018-11-04T11:58:52.398Z,62.96
2018-11-04T12:01:21.595Z,63.33
2018-11-04T12:03:50.756Z,63.46
2018-11-04T12:06:19.911Z,63.63
2018-11-04T12:08:49.136Z,63.92
2018-11-04T12:11:18.307Z,63.50
2018-11-04T12:13:47.721Z,63.50
2018-11-04T12:16:17.160Z,62.92
2018-11-04T12:18:46.404Z,63.16
2018-11-04T12:21:15.565Z,63.13
2018-11-04T12:23:44.823Z,63.90
2018-11-04T12:26:13.866Z,63.87
2018-11-04T12:28:43.028Z,63.51
2018-11-04T12:31:12.201Z,63.88
2018-11-04T12:33:41.340Z,65.11
2018-11-04T12:36:10.535Z,63.68
2018-11-04T12:38:39.716Z,63.90
2018-11-04T12:41:08.863Z,63.96
2018-11-04T12:43:38.445Z,63.81
2018-11-04T12:46:07.587Z,63.56
2018-11-04T12:48:36.748Z,63.33
2018-11-04T12:51:06.100Z,63.64
2018-11-04T12:53:35.248Z,63.10
2018-11-04T12:56:04.395Z,63.30
2018-11-04T12:58:33.631Z,63.98
2018-11-04T13:01:02.976Z,64.10
2018-11-04T13:03:32.282Z,63.94
2018-11-04T13:06:01.535Z,62.90
2018-11-04T13:08:30.782Z,63.87
2018-11-04T13:10:59.925Z,63.13
2018-11-04T13:13:29.127Z,63.83
2018-11-04T13:15:59.118Z,63.53
2018-11-04T13:18:29.190Z,63.40
2018-11-04T13:20:59.277Z,63.58
2018-11-04T13:23:29.274Z,63.48
2018-11-04T13:25:59.044Z,63.38
2018-11-04T13:28:29.251Z,63.00
2018-11-04T13:30:59.067Z,63.89
2018-11-04T13:33:29.095Z,63.47
2018-11-04T13:35:59.164Z,63.48
2018-11-04T13:38:29.195Z,63.76
2018-11-04T13:40:59.085Z,63.77
2018-11-04T13:43:29.102Z,63.38
2018-11-04T13:45:59.232Z,63.81
2018-11-04T13:48:29.114Z,63.77
2018-11-04T13:50:59.210Z,64.83
2018-11-04T13:53:29.228Z,63.90
2018-11-04T13:55:59.143Z,64.60
2018-11-04T13:58:29.214Z,65.01
2018-11-04T14:00:59.190Z,64.78
2018-11-04T14:03:29.194Z,65.04
2018-11-04T14:05:59.230Z,64.08
2018-11-04T14:08:29.226Z,64.44
2018-11-04T14:10:59.230Z,65.03
2018-11-04T14:13:29.446Z,64.85
2018-11-04T14:15:59.283Z,64.39
2018-11-04T14:18:29.205Z,64.84
2018-11-04T14:20:59.243Z,64.47
2018-11-04T14:23:29.360Z,64.81
2018-11-04T14:25:59.372Z,64.89
2018-11-04T14:28:29.307Z,64.99
2018-11-04T14:30:59.399Z,65.21
2018-11-04T14:33:29.306Z,65.22
2018-11-04T14:35:59.253Z,64.35
2018-11-04T14:38:29.464Z,64.19
2018-11-04T14:40:59.302Z,64.47
2018-11-04T14:43:29.421Z,65.42
2018-11-04T14:45:59.384Z,65.08
2018-11-04T14:48:29.367Z,65.54
2018-11-04T14:50:59.578Z,64.84
2018-11-04T14:53:29.403Z,64.47
2018-11-04T14:55:59.391Z,64.88
2018-11-04T14:58:29.296Z,64.37
2018-11-04T15:00:59.820Z,64.56
2018-11-04T15:03:29.395Z,64.72
2018-11-04T15:05:59.276Z,65.35
2018-11-04T15:08:29.476Z,65.36
2018-11-04T15:10:59.441Z,64.53
2018-11-04T15:13:29.431Z,65.27
2018-11-04T15:15:59.403Z,64.71
2018-11-04T15:18:29.410Z,64.19
2018-11-04T15:20:59.400Z,64.72
2018-11-04T15:23:29.350Z,64.79
2018-11-04T15:25:59.371Z,64.79
2018-11-04T15:28:29.444Z,65.33
2018-11-04T15:30:59.401Z,65.07
2018-11-04T15:33:29.343Z,65.65
2018-11-04T15:35:59.336Z,65.93
2018-11-04T15:38:29.465Z,66.12
2018-11-04T15:40:59.547Z,66.08
2018-11-04T15:43:29.588Z,65.58
2018-11-04T15:45:59.847Z,65.41
2018-11-04T15:50:06.524Z,65.54
2018-11-04T15:52:35.779Z,66.43
2018-11-04T15:55:05.105Z,66.50
2018-11-04T15:57:34.207Z,65.91
2018-11-04T16:00:03.414Z,66.52
2018-11-04T16:02:32.704Z,66.02
2018-11-04T16:05:01.866Z,66.52
2018-11-04T16:07:31.023Z,66.32
2018-11-04T16:10:00.170Z,66.16
2018-11-04T16:12:29.399Z,65.88
2018-11-04T16:14:58.685Z,66.69
2018-11-04T16:17:27.903Z,66.50
2018-11-04T16:19:57.112Z,65.66
2018-11-04T16:22:26.243Z,66.22
2018-11-04T16:24:55.416Z,65.71
2018-11-04T16:27:24.619Z,66.44
2018-11-04T16:29:53.898Z,66.25
2018-11-04T16:32:23.035Z,65.86
2018-11-04T16:34:52.183Z,65.94
2018-11-04T16:37:21.388Z,66.19
2018-11-04T16:39:50.547Z,66.21
2018-11-04T16:42:19.810Z,66.64
2018-11-04T16:44:49.202Z,66.03
2018-11-04T16:47:18.368Z,67.04
2018-11-04T16:49:47.512Z,67.06
2018-11-04T16:52:16.655Z,66.15
2018-11-04T16:54:45.814Z,67.29
2018-11-04T16:57:14.938Z,66.73
2018-11-04T16:59:44.193Z,66.31
2018-11-04T17:02:13.348Z,66.25
2018-11-04T17:04:42.593Z,66.71
2018-11-04T17:07:11.659Z,66.55
2018-11-04T17:09:40.823Z,66.66
2018-11-04T17:12:09.955Z,66.84
2018-11-04T17:14:39.597Z,66.83
2018-11-04T17:17:08.738Z,66.68
2018-11-04T17:19:38.054Z,66.92
2018-11-04T17:22:07.286Z,67.08
2018-11-04T17:24:36.692Z,66.42
2018-11-04T17:27:05.944Z,66.14
2018-11-04T17:29:35.130Z,66.77
2018-11-04T17:32:04.458Z,66.69
2018-11-04T17:34:33.827Z,67.48
2018-11-04T17:37:03.220Z,66.86
2018-11-04T17:39:33.229Z,67.10
2018-11-04T17:42:03.176Z,66.70
2018-11-04T17:44:33.291Z,67.24
2018-11-04T17:47:03.239Z,67.19
2018-11-04T17:49:33.409Z,66.55
2018-11-04T17:52:03.185Z,66.79
2018-11-04T17:54:33.335Z,66.81
2018-11-04T17:57:03.191Z,67.34
2018-11-04T17:59:33.348Z,67.17
2018-11-04T18:02:03.268Z,66.81
2018-11-04T18:04:33.212Z,66.89
2018-11-04T18:07:03.250Z,66.82
2018-11-04T18:09:33.243Z,67.12
2018-11-04T18:12:03.296Z,66.60
2018-11-04T18:14:33.215Z,67.32
2018-11-04T18:17:03.387Z,67.45
2018-11-04T18:19:33.232Z,66.35
2018-11-04T18:22:03.248Z,66.32
2018-11-04T18:24:33.346Z,66.67
2018-11-04T18:27:03.306Z,67.46
2018-11-04T18:29:33.277Z,67.14
2018-11-04T18:32:03.348Z,67.17
2018-11-04T18:34:33.472Z,67.18
2018-11-04T18:37:03.348Z,67.41
2018-11-04T18:39:33.331Z,66.58
2018-11-04T18:42:03.348Z,67.13
2018-11-04T18:44:33.407Z,67.51
2018-11-04T18:47:03.394Z,67.22
2018-11-04T18:49:33.368Z,67.45
2018-11-04T18:52:03.523Z,67.16
2018-11-04T18:54:33.446Z,67.11
2018-11-04T18:57:03.490Z,67.39
2018-11-04T18:59:33.431Z,66.95
2018-11-04T19:02:03.478Z,66.99
2018-11-04T19:04:33.486Z,67.01
2018-11-04T19:07:03.499Z,67.14
2018-11-04T19:09:33.457Z,66.72
2018-11-04T19:12:03.419Z,66.66
2018-11-04T19:14:33.398Z,67.00
2018-11-04T19:17:03.590Z,67.38
2018-11-04T19:19:33.511Z,67.11
2018-11-04T19:22:03.712Z,67.84
2018-11-04T19:24:33.502Z,66.83
2018-11-04T19:27:03.482Z,66.88
2018-11-04T19:29:33.506Z,67.03
2018-11-04T19:32:03.526Z,67.19
2018-11-04T19:34:33.450Z,66.90
2018-11-04T19:37:03.576Z,67.60
2018-11-04T19:39:33.611Z,67.70
2018-11-04T19:42:03.510Z,66.93
2018-11-04T19:44:33.574Z,67.01
2018-11-04T19:52:27.374Z,68.40
2018-11-04T19:54:56.523Z,68.36
2018-11-04T19:57:29.344Z,67.78
2018-11-04T19:59:59.720Z,67.73
2018-11-04T20:02:29.708Z,67.64
2018-11-04T20:04:59.618Z,68.02
2018-11-04T20:07:28.988Z,67.90
2018-11-04T20:09:58.148Z,67.22
2018-11-04T20:12:32.594Z,67.72
2018-11-04T20:15:01.756Z,68.12
2018-11-04T20:17:30.972Z,67.54
2018-11-04T20:20:05.466Z,67.41
2018-11-04T20:22:34.507Z,67.68
2018-11-04T20:25:09.072Z,67.69
2018-11-04T20:27:38.232Z,67.65
2018-11-04T20:30:09.236Z,67.70
2018-11-04T20:32:43.667Z,67.56
2018-11-04T20:35:13.430Z,67.27
2018-11-04T20:37:42.930Z,67.55
2018-11-04T20:40:17.395Z,67.74
2018-11-04T20:42:46.583Z,68.17
2018-11-04T20:45:15.758Z,67.71
2018-11-04T20:47:50.078Z,67.75
2018-11-04T20:50:24.619Z,67.12
2018-11-04T20:52:53.850Z,67.26
2018-11-04T20:55:22.999Z,67.77
2018-11-04T20:57:54.578Z,67.55
2018-11-04T21:00:23.676Z,67.73
2018-11-04T21:02:52.822Z,67.92
2018-11-04T21:05:22.112Z,67.41
2018-11-04T21:07:51.288Z,67.53
2018-11-04T21:10:20.507Z,67.21
2018-11-04T21:12:49.935Z,67.29
2018-11-04T21:15:19.079Z,67.67
2018-11-04T21:17:48.319Z,67.08
2018-11-04T21:20:17.458Z,67.07
2018-11-04T21:22:46.636Z,67.91
2018-11-04T21:25:15.835Z,67.62
2018-11-04T21:27:45.055Z,67.77
2018-11-04T21:30:14.422Z,67.47
2018-11-04T21:32:44.022Z,67.75
2018-11-04T21:35:13.159Z,68.48
2018-11-04T21:37:42.327Z,67.78
2018-11-04T21:40:11.519Z,67.99
2018-11-04T21:42:40.862Z,67.94
2018-11-04T21:45:12.000Z,67.86
2018-11-04T21:47:41.350Z,68.30
2018-11-04T21:50:11.179Z,68.06
2018-11-04T21:52:40.554Z,68.05
2018-11-04T21:55:12.034Z,68.13
2018-11-04T21:57:42.352Z,67.46
2018-11-04T22:00:13.299Z,67.56
2018-11-04T22:02:42.925Z,67.72
2018-11-04T22:05:12.300Z,67.91
2018-11-04T22:07:42.411Z,67.51
2018-11-04T22:10:13.859Z,68.38
2018-11-04T22:12:44.120Z,67.65
2018-11-04T22:15:13.403Z,68.66
2018-11-04T22:17:42.876Z,68.02
2018-11-04T22:20:13.154Z,68.42
2018-11-04T22:22:42.300Z,68.51
2018-11-04T22:25:11.815Z,68.32
2018-11-04T22:27:40.994Z,68.31
2018-11-04T22:30:11.469Z,68.25
2018-11-04T22:32:40.648Z,67.78
2018-11-04T22:35:11.388Z,68.30
2018-11-04T22:37:40.535Z,68.95
2018-11-04T22:40:11.102Z,68.19
2018-11-04T22:42:40.902Z,68.32
2018-11-04T22:45:11.352Z,68.37
2018-11-04T22:47:41.273Z,68.69
2018-11-04T22:50:14.754Z,68.16
2018-11-04T22:52:44.211Z,68.13
2018-11-04T22:55:14.184Z,68.61
2018-11-04T22:57:43.890Z,68.66
2018-11-04T23:00:18.319Z,68.69
2018-11-04T23:02:48.767Z,68.62
2018-11-04T23:05:23.388Z,68.87
2018-11-04T23:07:52.971Z,69.21
2018-11-04T23:10:22.254Z,68.42
2018-11-04T23:12:52.462Z,68.74
2018-11-04T23:15:21.628Z,68.21
2018-11-04T23:17:51.009Z,68.75
2018-11-04T23:20:20.163Z,69.56
2018-11-04T23:22:49.314Z,69.46
2018-11-04T23:25:18.471Z,69.29
2018-11-04T23:27:47.612Z,68.87
2018-11-04T23:30:17.999Z,68.96
2018-11-04T23:32:47.671Z,68.42
2018-11-04T23:35:16.833Z,68.58
2018-11-04T23:37:46.008Z,68.58
2018-11-04T23:40:15.215Z,68.56
2018-11-04T23:42:44.354Z,68.49
2018-11-04T23:45:14.567Z,68.77
2018-11-04T23:47:44.003Z,68.81
2018-11-04T23:50:14.754Z,69.28
2018-11-04T23:52:44.287Z,68.69
2018-11-04T23:55:14.181Z,69.10
2018-11-04T23:57:43.352Z,68.67
